sensor_id;sensor_type;location;lat;lon;timestamp;P1;durP1;ratioP1;P2;durP2;ratioP2
69161;SDS011;56269;51.738;21.652;2023-03-04T00:02:25;39.33;;;15.60;;
69161;SDS011;56269;51.738;21.652;2023-03-04T00:04:51;42.00;;;15.23;;
69161;SDS011;56269;51.738;21.652;2023-03-04T00:07:18;29.88;;;11.00;;
69161;SDS011;56269;51.738;21.652;2023-03-04T00:09:44;35.72;;;13.27;;
69161;SDS011;56269;51.738;21.652;2023-03-04T00:12:11;25.60;;;10.17;;
69161;SDS011;56269;51.738;21.652;2023-03-04T00:14:37;38.28;;;13.90;;
69161;SDS011;56269;51.738;21.652;2023-03-04T00:17:04;47.78;;;18.63;;
69161;SDS011;56269;51.738;21.652;2023-03-04T00:19:31;34.58;;;14.15;;
69161;SDS011;56269;51.738;21.652;2023-03-04T00:21:58;21.30;;;9.13;;
69161;SDS011;56269;51.738;21.652;2023-03-04T00:24:24;43.63;;;14.70;;
69161;SDS011;56269;51.738;21.652;2023-03-04T00:26:50;30.63;;;11.35;;
69161;SDS011;56269;51.738;21.652;2023-03-04T00:29:16;39.38;;;12.57;;
69161;SDS011;56269;51.738;21.652;2023-03-04T00:31:43;30.08;;;11.80;;
69161;SDS011;56269;51.738;21.652;2023-03-04T00:34:09;36.70;;;14.48;;
69161;SDS011;56269;51.738;21.652;2023-03-04T00:36:35;49.83;;;20.20;;
69161;SDS011;56269;51.738;21.652;2023-03-04T00:39:02;37.50;;;13.32;;
69161;SDS011;56269;51.738;21.652;2023-03-04T00:41:29;39.95;;;15.27;;
69161;SDS011;56269;51.738;21.652;2023-03-04T00:43:55;29.02;;;10.50;;
69161;SDS011;56269;51.738;21.652;2023-03-04T00:46:21;38.72;;;13.77;;
69161;SDS011;56269;51.738;21.652;2023-03-04T00:48:47;44.30;;;16.77;;
69161;SDS011;56269;51.738;21.652;2023-03-04T00:51:14;35.47;;;14.07;;
69161;SDS011;56269;51.738;21.652;2023-03-04T00:53:40;46.30;;;17.63;;
69161;SDS011;56269;51.738;21.652;2023-03-04T00:56:06;37.70;;;14.15;;
69161;SDS011;56269;51.738;21.652;2023-03-04T00:58:32;39.70;;;13.75;;
69161;SDS011;56269;51.738;21.652;2023-03-04T01:00:58;39.53;;;14.77;;
69161;SDS011;56269;51.738;21.652;2023-03-04T01:03:24;37.50;;;14.32;;
69161;SDS011;56269;51.738;21.652;2023-03-04T01:05:51;40.03;;;14.07;;
69161;SDS011;56269;51.738;21.652;2023-03-04T01:08:17;44.65;;;15.55;;
69161;SDS011;56269;51.738;21.652;2023-03-04T01:10:44;54.28;;;22.85;;
69161;SDS011;56269;51.738;21.652;2023-03-04T01:13:10;48.67;;;19.57;;
69161;SDS011;56269;51.738;21.652;2023-03-04T01:15:36;53.10;;;21.83;;
69161;SDS011;56269;51.738;21.652;2023-03-04T01:18:02;47.25;;;18.35;;
69161;SDS011;56269;51.738;21.652;2023-03-04T01:20:29;36.38;;;13.73;;
69161;SDS011;56269;51.738;21.652;2023-03-04T01:22:55;41.90;;;16.23;;
69161;SDS011;56269;51.738;21.652;2023-03-04T01:25:21;44.20;;;16.33;;
69161;SDS011;56269;51.738;21.652;2023-03-04T01:27:47;34.30;;;12.70;;
69161;SDS011;56269;51.738;21.652;2023-03-04T01:30:14;29.90;;;12.32;;
69161;SDS011;56269;51.738;21.652;2023-03-04T01:32:40;44.30;;;15.35;;
69161;SDS011;56269;51.738;21.652;2023-03-04T01:35:06;34.20;;;13.05;;
69161;SDS011;56269;51.738;21.652;2023-03-04T01:37:33;35.53;;;13.43;;
69161;SDS011;56269;51.738;21.652;2023-03-04T01:39:59;21.52;;;8.75;;
69161;SDS011;56269;51.738;21.652;2023-03-04T01:42:26;45.72;;;18.50;;
69161;SDS011;56269;51.738;21.652;2023-03-04T01:44:55;46.38;;;18.63;;
69161;SDS011;56269;51.738;21.652;2023-03-04T01:47:21;35.03;;;14.48;;
69161;SDS011;56269;51.738;21.652;2023-03-04T01:49:53;28.83;;;10.73;;
69161;SDS011;56269;51.738;21.652;2023-03-04T01:52:20;43.78;;;16.17;;
69161;SDS011;56269;51.738;21.652;2023-03-04T01:54:47;41.08;;;14.90;;
69161;SDS011;56269;51.738;21.652;2023-03-04T01:59:43;23.55;;;10.20;;
69161;SDS011;56269;51.738;21.652;2023-03-04T02:02:09;29.40;;;10.37;;
69161;SDS011;56269;51.738;21.652;2023-03-04T02:04:35;49.33;;;18.75;;
69161;SDS011;56269;51.738;21.652;2023-03-04T02:07:02;43.20;;;15.80;;
69161;SDS011;56269;51.738;21.652;2023-03-04T02:09:29;35.63;;;13.60;;
69161;SDS011;56269;51.738;21.652;2023-03-04T02:11:57;37.95;;;13.07;;
69161;SDS011;56269;51.738;21.652;2023-03-04T02:14:24;24.27;;;10.17;;
69161;SDS011;56269;51.738;21.652;2023-03-04T02:16:51;30.83;;;11.63;;
69161;SDS011;56269;51.738;21.652;2023-03-04T02:21:59;23.55;;;8.60;;
69161;SDS011;56269;51.738;21.652;2023-03-04T02:24:28;24.30;;;8.55;;
69161;SDS011;56269;51.738;21.652;2023-03-04T02:27:00;24.60;;;8.73;;
69161;SDS011;56269;51.738;21.652;2023-03-04T02:29:27;30.55;;;11.38;;
69161;SDS011;56269;51.738;21.652;2023-03-04T02:31:54;38.95;;;12.48;;
69161;SDS011;56269;51.738;21.652;2023-03-04T02:34:21;36.83;;;13.05;;
69161;SDS011;56269;51.738;21.652;2023-03-04T02:36:55;41.47;;;16.67;;
69161;SDS011;56269;51.738;21.652;2023-03-04T02:39:33;21.20;;;8.90;;
69161;SDS011;56269;51.738;21.652;2023-03-04T02:42:01;33.95;;;12.85;;
69161;SDS011;56269;51.738;21.652;2023-03-04T02:44:29;26.40;;;10.77;;
69161;SDS011;56269;51.738;21.652;2023-03-04T02:47:05;30.83;;;11.82;;
69161;SDS011;56269;51.738;21.652;2023-03-04T02:49:34;38.28;;;15.43;;
69161;SDS011;56269;51.738;21.652;2023-03-04T02:52:06;37.40;;;15.37;;
69161;SDS011;56269;51.738;21.652;2023-03-04T02:54:39;23.70;;;8.00;;
69161;SDS011;56269;51.738;21.652;2023-03-04T02:57:06;26.17;;;9.85;;
69161;SDS011;56269;51.738;21.652;2023-03-04T02:59:35;39.58;;;15.05;;
69161;SDS011;56269;51.738;21.652;2023-03-04T03:02:02;42.75;;;14.55;;
69161;SDS011;56269;51.738;21.652;2023-03-04T03:04:29;35.00;;;14.27;;
69161;SDS011;56269;51.738;21.652;2023-03-04T03:06:55;26.30;;;10.38;;
69161;SDS011;56269;51.738;21.652;2023-03-04T03:09:21;21.83;;;8.30;;
69161;SDS011;56269;51.738;21.652;2023-03-04T03:11:48;36.38;;;10.80;;
69161;SDS011;56269;51.738;21.652;2023-03-04T03:14:15;30.38;;;10.00;;
69161;SDS011;56269;51.738;21.652;2023-03-04T03:16:41;42.50;;;15.10;;
69161;SDS011;56269;51.738;21.652;2023-03-04T03:19:08;26.02;;;11.35;;
69161;SDS011;56269;51.738;21.652;2023-03-04T03:21:34;25.70;;;10.23;;
69161;SDS011;56269;51.738;21.652;2023-03-04T03:24:00;37.70;;;13.27;;
69161;SDS011;56269;51.738;21.652;2023-03-04T03:26:26;39.95;;;15.13;;
69161;SDS011;56269;51.738;21.652;2023-03-04T03:28:53;32.10;;;12.37;;
69161;SDS011;56269;51.738;21.652;2023-03-04T03:31:19;26.25;;;9.70;;
69161;SDS011;56269;51.738;21.652;2023-03-04T03:33:45;35.65;;;11.35;;
69161;SDS011;56269;51.738;21.652;2023-03-04T03:36:11;31.30;;;11.25;;
69161;SDS011;56269;51.738;21.652;2023-03-04T03:38:38;30.52;;;11.43;;
69161;SDS011;56269;51.738;21.652;2023-03-04T03:41:04;36.53;;;15.60;;
69161;SDS011;56269;51.738;21.652;2023-03-04T03:43:30;36.25;;;15.27;;
69161;SDS011;56269;51.738;21.652;2023-03-04T03:45:56;28.05;;;9.57;;
69161;SDS011;56269;51.738;21.652;2023-03-04T03:48:23;31.55;;;13.60;;
69161;SDS011;56269;51.738;21.652;2023-03-04T03:50:49;26.10;;;10.83;;
69161;SDS011;56269;51.738;21.652;2023-03-04T03:53:15;31.10;;;11.07;;
69161;SDS011;56269;51.738;21.652;2023-03-04T03:55:41;35.05;;;14.50;;
69161;SDS011;56269;51.738;21.652;2023-03-04T03:58:08;26.85;;;9.90;;
69161;SDS011;56269;51.738;21.652;2023-03-04T04:00:34;22.30;;;8.20;;
69161;SDS011;56269;51.738;21.652;2023-03-04T04:03:00;21.70;;;8.35;;
69161;SDS011;56269;51.738;21.652;2023-03-04T04:05:26;17.63;;;7.73;;
69161;SDS011;56269;51.738;21.652;2023-03-04T04:07:53;21.23;;;7.38;;
69161;SDS011;56269;51.738;21.652;2023-03-04T04:10:19;36.33;;;15.13;;
69161;SDS011;56269;51.738;21.652;2023-03-04T04:12:46;26.50;;;10.75;;
69161;SDS011;56269;51.738;21.652;2023-03-04T04:15:12;30.50;;;11.50;;
69161;SDS011;56269;51.738;21.652;2023-03-04T04:17:38;27.70;;;9.83;;
69161;SDS011;56269;51.738;21.652;2023-03-04T04:20:05;16.73;;;6.85;;
69161;SDS011;56269;51.738;21.652;2023-03-04T04:22:32;40.13;;;16.77;;
69161;SDS011;56269;51.738;21.652;2023-03-04T04:24:58;30.02;;;11.50;;
69161;SDS011;56269;51.738;21.652;2023-03-04T04:27:25;22.45;;;8.10;;
69161;SDS011;56269;51.738;21.652;2023-03-04T04:29:51;24.60;;;8.50;;
69161;SDS011;56269;51.738;21.652;2023-03-04T04:32:17;32.28;;;12.15;;
69161;SDS011;56269;51.738;21.652;2023-03-04T04:34:43;26.83;;;10.82;;
69161;SDS011;56269;51.738;21.652;2023-03-04T04:37:10;22.67;;;8.00;;
69161;SDS011;56269;51.738;21.652;2023-03-04T04:39:36;36.38;;;11.40;;
69161;SDS011;56269;51.738;21.652;2023-03-04T04:42:03;13.80;;;5.17;;
69161;SDS011;56269;51.738;21.652;2023-03-04T04:44:29;21.58;;;7.88;;
69161;SDS011;56269;51.738;21.652;2023-03-04T04:46:55;20.52;;;7.75;;
69161;SDS011;56269;51.738;21.652;2023-03-04T04:49:21;23.75;;;9.18;;
69161;SDS011;56269;51.738;21.652;2023-03-04T04:51:47;20.08;;;7.72;;
69161;SDS011;56269;51.738;21.652;2023-03-04T04:54:14;26.00;;;8.97;;
69161;SDS011;56269;51.738;21.652;2023-03-04T04:56:40;17.55;;;6.70;;
69161;SDS011;56269;51.738;21.652;2023-03-04T04:59:07;30.33;;;12.15;;
69161;SDS011;56269;51.738;21.652;2023-03-04T05:01:33;23.20;;;8.43;;
69161;SDS011;56269;51.738;21.652;2023-03-04T05:03:59;31.58;;;13.43;;
69161;SDS011;56269;51.738;21.652;2023-03-04T05:06:26;26.40;;;10.83;;
69161;SDS011;56269;51.738;21.652;2023-03-04T05:08:52;29.08;;;12.45;;
69161;SDS011;56269;51.738;21.652;2023-03-04T05:11:18;28.33;;;11.98;;
69161;SDS011;56269;51.738;21.652;2023-03-04T05:13:45;17.17;;;6.43;;
69161;SDS011;56269;51.738;21.652;2023-03-04T05:16:13;19.85;;;7.93;;
69161;SDS011;56269;51.738;21.652;2023-03-04T05:18:41;24.43;;;10.00;;
69161;SDS011;56269;51.738;21.652;2023-03-04T05:21:08;18.70;;;8.20;;
69161;SDS011;56269;51.738;21.652;2023-03-04T05:23:35;23.80;;;10.10;;
69161;SDS011;56269;51.738;21.652;2023-03-04T05:26:03;25.75;;;11.00;;
69161;SDS011;56269;51.738;21.652;2023-03-04T05:28:31;17.25;;;6.53;;
69161;SDS011;56269;51.738;21.652;2023-03-04T05:30:59;26.00;;;9.90;;
69161;SDS011;56269;51.738;21.652;2023-03-04T05:33:25;27.25;;;8.13;;
69161;SDS011;56269;51.738;21.652;2023-03-04T05:35:51;19.83;;;7.60;;
69161;SDS011;56269;51.738;21.652;2023-03-04T05:38:19;28.40;;;10.25;;
69161;SDS011;56269;51.738;21.652;2023-03-04T05:40:47;16.50;;;5.95;;
69161;SDS011;56269;51.738;21.652;2023-03-04T05:43:15;26.33;;;11.73;;
69161;SDS011;56269;51.738;21.652;2023-03-04T05:45:42;23.95;;;9.40;;
69161;SDS011;56269;51.738;21.652;2023-03-04T05:48:08;28.45;;;9.82;;
69161;SDS011;56269;51.738;21.652;2023-03-04T05:50:34;32.55;;;13.82;;
69161;SDS011;56269;51.738;21.652;2023-03-04T05:53:01;26.60;;;11.18;;
69161;SDS011;56269;51.738;21.652;2023-03-04T05:55:27;31.80;;;12.50;;
69161;SDS011;56269;51.738;21.652;2023-03-04T05:57:54;36.00;;;14.73;;
69161;SDS011;56269;51.738;21.652;2023-03-04T06:00:21;18.35;;;7.38;;
69161;SDS011;56269;51.738;21.652;2023-03-04T06:02:47;13.77;;;5.05;;
69161;SDS011;56269;51.738;21.652;2023-03-04T06:05:14;18.70;;;7.55;;
69161;SDS011;56269;51.738;21.652;2023-03-04T06:07:41;28.00;;;11.77;;
69161;SDS011;56269;51.738;21.652;2023-03-04T06:10:08;17.27;;;6.80;;
69161;SDS011;56269;51.738;21.652;2023-03-04T06:12:35;27.80;;;11.80;;
69161;SDS011;56269;51.738;21.652;2023-03-04T06:15:01;17.90;;;7.05;;
69161;SDS011;56269;51.738;21.652;2023-03-04T06:17:28;29.63;;;13.30;;
69161;SDS011;56269;51.738;21.652;2023-03-04T06:19:55;31.50;;;13.37;;
69161;SDS011;56269;51.738;21.652;2023-03-04T06:22:21;27.00;;;9.98;;
69161;SDS011;56269;51.738;21.652;2023-03-04T06:24:47;26.35;;;11.25;;
69161;SDS011;56269;51.738;21.652;2023-03-04T06:27:13;22.00;;;7.93;;
69161;SDS011;56269;51.738;21.652;2023-03-04T06:29:41;19.67;;;7.30;;
69161;SDS011;56269;51.738;21.652;2023-03-04T06:32:07;21.43;;;8.20;;
69161;SDS011;56269;51.738;21.652;2023-03-04T06:34:34;17.80;;;7.53;;
69161;SDS011;56269;51.738;21.652;2023-03-04T06:37:00;24.92;;;10.50;;
69161;SDS011;56269;51.738;21.652;2023-03-04T06:39:27;26.00;;;11.88;;
69161;SDS011;56269;51.738;21.652;2023-03-04T06:41:53;31.38;;;12.75;;
69161;SDS011;56269;51.738;21.652;2023-03-04T06:44:19;21.57;;;9.07;;
69161;SDS011;56269;51.738;21.652;2023-03-04T06:46:45;16.38;;;6.72;;
69161;SDS011;56269;51.738;21.652;2023-03-04T06:49:12;17.63;;;6.68;;
69161;SDS011;56269;51.738;21.652;2023-03-04T06:51:38;17.05;;;5.38;;
69161;SDS011;56269;51.738;21.652;2023-03-04T06:54:04;28.08;;;11.00;;
69161;SDS011;56269;51.738;21.652;2023-03-04T06:56:30;17.97;;;7.17;;
69161;SDS011;56269;51.738;21.652;2023-03-04T06:58:57;23.05;;;10.20;;
69161;SDS011;56269;51.738;21.652;2023-03-04T07:01:23;22.80;;;8.85;;
69161;SDS011;56269;51.738;21.652;2023-03-04T07:03:52;24.92;;;10.95;;
69161;SDS011;56269;51.738;21.652;2023-03-04T07:06:20;16.02;;;6.53;;
69161;SDS011;56269;51.738;21.652;2023-03-04T07:08:49;18.90;;;8.37;;
69161;SDS011;56269;51.738;21.652;2023-03-04T07:11:15;22.25;;;9.23;;
69161;SDS011;56269;51.738;21.652;2023-03-04T07:13:43;27.08;;;11.70;;
69161;SDS011;56269;51.738;21.652;2023-03-04T07:16:10;21.60;;;7.90;;
69161;SDS011;56269;51.738;21.652;2023-03-04T07:18:38;28.50;;;12.48;;
69161;SDS011;56269;51.738;21.652;2023-03-04T07:21:05;25.27;;;10.40;;
69161;SDS011;56269;51.738;21.652;2023-03-04T07:23:32;20.27;;;7.80;;
69161;SDS011;56269;51.738;21.652;2023-03-04T07:25:59;31.50;;;13.75;;
69161;SDS011;56269;51.738;21.652;2023-03-04T07:28:26;20.10;;;8.40;;
69161;SDS011;56269;51.738;21.652;2023-03-04T07:30:52;18.33;;;8.10;;
69161;SDS011;56269;51.738;21.652;2023-03-04T07:33:18;15.93;;;6.73;;
69161;SDS011;56269;51.738;21.652;2023-03-04T07:35:44;22.67;;;7.22;;
69161;SDS011;56269;51.738;21.652;2023-03-04T07:38:11;17.90;;;8.02;;
69161;SDS011;56269;51.738;21.652;2023-03-04T07:40:37;18.30;;;8.02;;
69161;SDS011;56269;51.738;21.652;2023-03-04T07:43:03;15.20;;;5.72;;
69161;SDS011;56269;51.738;21.652;2023-03-04T07:45:30;30.77;;;12.93;;
69161;SDS011;56269;51.738;21.652;2023-03-04T07:47:57;20.38;;;8.55;;
69161;SDS011;56269;51.738;21.652;2023-03-04T07:50:23;25.05;;;10.23;;
69161;SDS011;56269;51.738;21.652;2023-03-04T07:52:50;29.08;;;13.50;;
69161;SDS011;56269;51.738;21.652;2023-03-04T07:55:16;17.25;;;6.80;;
69161;SDS011;56269;51.738;21.652;2023-03-04T07:57:44;27.00;;;10.63;;
69161;SDS011;56269;51.738;21.652;2023-03-04T08:00:12;21.02;;;8.60;;
69161;SDS011;56269;51.738;21.652;2023-03-04T08:02:41;22.42;;;9.23;;
69161;SDS011;56269;51.738;21.652;2023-03-04T08:05:07;24.42;;;10.07;;
69161;SDS011;56269;51.738;21.652;2023-03-04T08:07:34;18.77;;;6.85;;
69161;SDS011;56269;51.738;21.652;2023-03-04T08:10:00;22.23;;;7.00;;
69161;SDS011;56269;51.738;21.652;2023-03-04T08:12:27;29.20;;;12.48;;
69161;SDS011;56269;51.738;21.652;2023-03-04T08:14:54;25.90;;;10.35;;
69161;SDS011;56269;51.738;21.652;2023-03-04T08:17:20;16.48;;;6.78;;
69161;SDS011;56269;51.738;21.652;2023-03-04T08:19:46;16.40;;;6.78;;
69161;SDS011;56269;51.738;21.652;2023-03-04T08:22:13;19.57;;;7.03;;
69161;SDS011;56269;51.738;21.652;2023-03-04T08:24:39;29.25;;;11.65;;
69161;SDS011;56269;51.738;21.652;2023-03-04T08:27:05;20.48;;;8.05;;
69161;SDS011;56269;51.738;21.652;2023-03-04T08:29:31;15.85;;;5.97;;
69161;SDS011;56269;51.738;21.652;2023-03-04T08:31:57;23.85;;;9.23;;
69161;SDS011;56269;51.738;21.652;2023-03-04T08:34:25;20.87;;;8.97;;
69161;SDS011;56269;51.738;21.652;2023-03-04T08:36:53;17.08;;;7.10;;
69161;SDS011;56269;51.738;21.652;2023-03-04T08:39:19;22.35;;;9.50;;
69161;SDS011;56269;51.738;21.652;2023-03-04T08:41:45;24.02;;;10.48;;
69161;SDS011;56269;51.738;21.652;2023-03-04T08:44:12;16.88;;;7.20;;
69161;SDS011;56269;51.738;21.652;2023-03-04T08:46:40;19.40;;;7.40;;
69161;SDS011;56269;51.738;21.652;2023-03-04T08:49:08;11.32;;;5.22;;
69161;SDS011;56269;51.738;21.652;2023-03-04T08:51:36;26.90;;;11.88;;
69161;SDS011;56269;51.738;21.652;2023-03-04T08:54:03;24.60;;;10.27;;
69161;SDS011;56269;51.738;21.652;2023-03-04T08:56:30;24.98;;;12.18;;
69161;SDS011;56269;51.738;21.652;2023-03-04T08:58:57;30.40;;;12.23;;
69161;SDS011;56269;51.738;21.652;2023-03-04T09:01:24;28.77;;;12.32;;
69161;SDS011;56269;51.738;21.652;2023-03-04T09:03:50;21.85;;;9.70;;
69161;SDS011;56269;51.738;21.652;2023-03-04T09:06:17;23.48;;;8.60;;
69161;SDS011;56269;51.738;21.652;2023-03-04T09:08:44;16.73;;;6.88;;
69161;SDS011;56269;51.738;21.652;2023-03-04T09:11:11;17.97;;;8.23;;
69161;SDS011;56269;51.738;21.652;2023-03-04T09:13:37;18.27;;;8.43;;
69161;SDS011;56269;51.738;21.652;2023-03-04T09:16:11;20.27;;;9.35;;
69161;SDS011;56269;51.738;21.652;2023-03-04T09:18:39;26.45;;;10.02;;
69161;SDS011;56269;51.738;21.652;2023-03-04T09:21:06;22.95;;;8.68;;
69161;SDS011;56269;51.738;21.652;2023-03-04T09:23:33;12.00;;;4.87;;
69161;SDS011;56269;51.738;21.652;2023-03-04T09:26:00;18.15;;;8.63;;
69161;SDS011;56269;51.738;21.652;2023-03-04T09:28:27;24.92;;;10.07;;
69161;SDS011;56269;51.738;21.652;2023-03-04T09:30:53;23.55;;;9.73;;
69161;SDS011;56269;51.738;21.652;2023-03-04T09:33:19;24.25;;;9.27;;
69161;SDS011;56269;51.738;21.652;2023-03-04T09:35:46;25.60;;;10.93;;
69161;SDS011;56269;51.738;21.652;2023-03-04T09:38:14;24.23;;;10.10;;
69161;SDS011;56269;51.738;21.652;2023-03-04T09:43:16;21.98;;;8.32;;
69161;SDS011;56269;51.738;21.652;2023-03-04T09:45:48;18.48;;;7.22;;
69161;SDS011;56269;51.738;21.652;2023-03-04T09:48:19;18.00;;;8.13;;
69161;SDS011;56269;51.738;21.652;2023-03-04T09:50:57;21.23;;;8.13;;
69161;SDS011;56269;51.738;21.652;2023-03-04T09:53:44;19.55;;;8.30;;
69161;SDS011;56269;51.738;21.652;2023-03-04T09:56:24;21.23;;;7.82;;
69161;SDS011;56269;51.738;21.652;2023-03-04T10:01:33;17.60;;;8.17;;
69161;SDS011;56269;51.738;21.652;2023-03-04T10:04:14;23.13;;;9.10;;
69161;SDS011;56269;51.738;21.652;2023-03-04T10:06:42;16.73;;;7.25;;
69161;SDS011;56269;51.738;21.652;2023-03-04T10:09:17;24.05;;;8.55;;
69161;SDS011;56269;51.738;21.652;2023-03-04T10:11:49;26.90;;;12.48;;
69161;SDS011;56269;51.738;21.652;2023-03-04T10:16:58;19.58;;;7.95;;
69161;SDS011;56269;51.738;21.652;2023-03-04T10:19:41;25.95;;;9.73;;
69161;SDS011;56269;51.738;21.652;2023-03-04T10:22:38;24.98;;;9.68;;
69161;SDS011;56269;51.738;21.652;2023-03-04T10:25:16;21.90;;;7.75;;
69161;SDS011;56269;51.738;21.652;2023-03-04T10:27:56;23.10;;;9.07;;
69161;SDS011;56269;51.738;21.652;2023-03-04T10:33:34;12.20;;;4.95;;
69161;SDS011;56269;51.738;21.652;2023-03-04T10:39:00;23.00;;;9.80;;
69161;SDS011;56269;51.738;21.652;2023-03-04T10:41:31;24.33;;;10.17;;
69161;SDS011;56269;51.738;21.652;2023-03-04T10:46:36;18.55;;;7.78;;
69161;SDS011;56269;51.738;21.652;2023-03-04T10:49:10;21.80;;;8.52;;
69161;SDS011;56269;51.738;21.652;2023-03-04T10:51:43;26.83;;;9.50;;
69161;SDS011;56269;51.738;21.652;2023-03-04T10:57:03;14.85;;;6.53;;
69161;SDS011;56269;51.738;21.652;2023-03-04T11:02:16;19.00;;;8.13;;
69161;SDS011;56269;51.738;21.652;2023-03-04T11:04:56;19.73;;;8.00;;
69161;SDS011;56269;51.738;21.652;2023-03-04T11:07:41;21.47;;;9.30;;
69161;SDS011;56269;51.738;21.652;2023-03-04T11:10:12;22.77;;;8.10;;
69161;SDS011;56269;51.738;21.652;2023-03-04T11:12:42;16.83;;;5.70;;
69161;SDS011;56269;51.738;21.652;2023-03-04T11:15:18;18.23;;;7.28;;
69161;SDS011;56269;51.738;21.652;2023-03-04T11:17:49;18.42;;;7.40;;
69161;SDS011;56269;51.738;21.652;2023-03-04T11:22:54;17.10;;;7.50;;
69161;SDS011;56269;51.738;21.652;2023-03-04T11:25:26;22.15;;;9.15;;
69161;SDS011;56269;51.738;21.652;2023-03-04T11:28:05;13.13;;;6.10;;
69161;SDS011;56269;51.738;21.652;2023-03-04T11:30:44;22.33;;;10.00;;
69161;SDS011;56269;51.738;21.652;2023-03-04T11:33:24;19.83;;;5.97;;
69161;SDS011;56269;51.738;21.652;2023-03-04T11:39:00;16.92;;;7.35;;
69161;SDS011;56269;51.738;21.652;2023-03-04T11:41:37;21.48;;;8.77;;
69161;SDS011;56269;51.738;21.652;2023-03-04T11:44:06;17.15;;;5.80;;
69161;SDS011;56269;51.738;21.652;2023-03-04T12:28:00;24.30;;;9.67;;
69161;SDS011;56269;51.738;21.652;2023-03-04T12:30:39;19.77;;;8.02;;
69161;SDS011;56269;51.738;21.652;2023-03-04T12:36:35;24.35;;;9.88;;
69161;SDS011;56269;51.738;21.652;2023-03-04T12:44:21;16.23;;;6.63;;
69161;SDS011;56269;51.738;21.652;2023-03-04T12:49:50;25.13;;;10.23;;
69161;SDS011;56269;51.738;21.652;2023-03-04T12:52:36;23.05;;;9.43;;
69161;SDS011;56269;51.738;21.652;2023-03-04T12:55:11;13.70;;;5.37;;
69161;SDS011;56269;51.738;21.652;2023-03-04T12:57:40;22.92;;;9.55;;
69161;SDS011;56269;51.738;21.652;2023-03-04T13:00:13;16.15;;;6.65;;
69161;SDS011;56269;51.738;21.652;2023-03-04T13:05:25;16.67;;;5.70;;
69161;SDS011;56269;51.738;21.652;2023-03-04T13:08:20;20.37;;;8.57;;
69161;SDS011;56269;51.738;21.652;2023-03-04T13:10:50;27.25;;;8.82;;
69161;SDS011;56269;51.738;21.652;2023-03-04T13:16:06;15.30;;;5.93;;
69161;SDS011;56269;51.738;21.652;2023-03-04T13:18:57;12.48;;;4.95;;
69161;SDS011;56269;51.738;21.652;2023-03-04T13:21:24;13.27;;;4.67;;
69161;SDS011;56269;51.738;21.652;2023-03-04T13:24:39;14.98;;;6.40;;
69161;SDS011;56269;51.738;21.652;2023-03-04T13:35:56;14.97;;;5.40;;
69161;SDS011;56269;51.738;21.652;2023-03-04T13:48:57;21.10;;;8.30;;
69161;SDS011;56269;51.738;21.652;2023-03-04T13:56:38;17.95;;;6.47;;
69161;SDS011;56269;51.738;21.652;2023-03-04T13:59:52;13.75;;;6.20;;
69161;SDS011;56269;51.738;21.652;2023-03-04T14:04:27;16.25;;;5.65;;
69161;SDS011;56269;51.738;21.652;2023-03-04T14:06:57;12.75;;;5.32;;
69161;SDS011;56269;51.738;21.652;2023-03-04T14:09:28;17.55;;;7.40;;
69161;SDS011;56269;51.738;21.652;2023-03-04T14:12:01;13.13;;;5.35;;
69161;SDS011;56269;51.738;21.652;2023-03-04T14:14:46;19.67;;;7.60;;
69161;SDS011;56269;51.738;21.652;2023-03-04T14:17:20;10.85;;;4.80;;
69161;SDS011;56269;51.738;21.652;2023-03-04T14:19:48;13.95;;;4.78;;
69161;SDS011;56269;51.738;21.652;2023-03-04T14:22:26;11.15;;;4.63;;
69161;SDS011;56269;51.738;21.652;2023-03-04T14:25:05;16.45;;;6.97;;
69161;SDS011;56269;51.738;21.652;2023-03-04T14:27:35;11.70;;;4.40;;
69161;SDS011;56269;51.738;21.652;2023-03-04T14:30:03;14.05;;;5.63;;
69161;SDS011;56269;51.738;21.652;2023-03-04T14:32:56;19.95;;;7.53;;
69161;SDS011;56269;51.738;21.652;2023-03-04T14:35:28;11.65;;;4.30;;
69161;SDS011;56269;51.738;21.652;2023-03-04T14:40:35;19.53;;;6.80;;
69161;SDS011;56269;51.738;21.652;2023-03-04T14:43:16;13.27;;;5.75;;
69161;SDS011;56269;51.738;21.652;2023-03-04T14:45:45;19.40;;;5.75;;
69161;SDS011;56269;51.738;21.652;2023-03-04T14:48:19;12.10;;;5.00;;
69161;SDS011;56269;51.738;21.652;2023-03-04T14:51:00;14.13;;;5.40;;
69161;SDS011;56269;51.738;21.652;2023-03-04T14:53:29;23.77;;;8.47;;
69161;SDS011;56269;51.738;21.652;2023-03-04T14:56:01;12.35;;;4.97;;
69161;SDS011;56269;51.738;21.652;2023-03-04T14:58:30;16.23;;;5.78;;
69161;SDS011;56269;51.738;21.652;2023-03-04T15:06:23;10.93;;;4.03;;
69161;SDS011;56269;51.738;21.652;2023-03-04T15:09:04;17.83;;;6.32;;
69161;SDS011;56269;51.738;21.652;2023-03-04T15:11:49;15.00;;;5.45;;
69161;SDS011;56269;51.738;21.652;2023-03-04T15:22:33;17.92;;;6.20;;
69161;SDS011;56269;51.738;21.652;2023-03-04T15:25:01;9.70;;;3.25;;
69161;SDS011;56269;51.738;21.652;2023-03-04T15:27:28;7.72;;;3.10;;
69161;SDS011;56269;51.738;21.652;2023-03-04T15:29:57;6.38;;;1.88;;
69161;SDS011;56269;51.738;21.652;2023-03-04T15:32:29;7.47;;;2.50;;
69161;SDS011;56269;51.738;21.652;2023-03-04T15:34:56;6.47;;;2.75;;
69161;SDS011;56269;51.738;21.652;2023-03-04T15:37:27;7.03;;;2.53;;
69161;SDS011;56269;51.738;21.652;2023-03-04T15:39:55;5.10;;;2.00;;
69161;SDS011;56269;51.738;21.652;2023-03-04T15:42:22;8.23;;;3.15;;
69161;SDS011;56269;51.738;21.652;2023-03-04T15:44:50;5.97;;;2.30;;
69161;SDS011;56269;51.738;21.652;2023-03-04T15:47:16;7.72;;;2.42;;
69161;SDS011;56269;51.738;21.652;2023-03-04T15:49:43;6.25;;;2.03;;
69161;SDS011;56269;51.738;21.652;2023-03-04T15:52:18;3.92;;;1.50;;
69161;SDS011;56269;51.738;21.652;2023-03-04T15:54:47;4.78;;;1.63;;
69161;SDS011;56269;51.738;21.652;2023-03-04T15:57:19;7.57;;;2.20;;
69161;SDS011;56269;51.738;21.652;2023-03-04T15:59:49;5.53;;;1.70;;
69161;SDS011;56269;51.738;21.652;2023-03-04T16:02:18;7.95;;;2.17;;
69161;SDS011;56269;51.738;21.652;2023-03-04T16:04:50;6.68;;;2.47;;
69161;SDS011;56269;51.738;21.652;2023-03-04T16:07:17;5.15;;;1.60;;
69161;SDS011;56269;51.738;21.652;2023-03-04T16:09:46;6.93;;;2.80;;
69161;SDS011;56269;51.738;21.652;2023-03-04T16:12:19;6.68;;;2.53;;
69161;SDS011;56269;51.738;21.652;2023-03-04T16:14:47;8.00;;;3.35;;
69161;SDS011;56269;51.738;21.652;2023-03-04T16:17:14;8.55;;;2.47;;
69161;SDS011;56269;51.738;21.652;2023-03-04T16:19:41;8.82;;;2.80;;
69161;SDS011;56269;51.738;21.652;2023-03-04T16:22:17;8.23;;;2.60;;
69161;SDS011;56269;51.738;21.652;2023-03-04T16:24:51;6.15;;;2.08;;
69161;SDS011;56269;51.738;21.652;2023-03-04T16:27:19;4.43;;;1.52;;
69161;SDS011;56269;51.738;21.652;2023-03-04T16:29:47;6.88;;;3.00;;
69161;SDS011;56269;51.738;21.652;2023-03-04T16:32:13;7.47;;;3.35;;
69161;SDS011;56269;51.738;21.652;2023-03-04T16:34:40;11.97;;;5.07;;
69161;SDS011;56269;51.738;21.652;2023-03-04T16:37:11;7.05;;;2.70;;
69161;SDS011;56269;51.738;21.652;2023-03-04T16:39:41;8.75;;;3.15;;
69161;SDS011;56269;51.738;21.652;2023-03-04T16:42:14;11.95;;;3.15;;
69161;SDS011;56269;51.738;21.652;2023-03-04T16:44:50;11.82;;;3.55;;